Time;durP1;ratioP1;P1;durP2;ratioP2;P2;SDS_P1;SDS_P2;PMS_P1;PMS_P2;Temp;Humidity;BMP_temperature;BMP_pressure;BME280_temperature;BME280_humidity;BME280_pressure;Samples;Min_cycle;Max_cycle;Signal;HPM_P1;HPM_P2
2022/01/25 00:27:08;;;;;;;;;;;;;;;-7.67;100.00;102286.56;5557452;32;34412;-83
2022/01/25 00:30:31;;;;;;;;;;;;;;;-7.74;100.00;102286.44;5557506;32;34427;-83
2022/01/25 00:33:37;;;;;;;;;;;;;;;-7.81;100.00;102281.16;5558217;32;34679;-83
2022/01/25 00:36:39;;;;;;;;;;;;;;;-7.82;100.00;102278.59;5557048;32;34614;-83
2022/01/25 00:39:42;;;;;;;;;;;;;;;-7.84;100.00;102280.25;5557955;32;34255;-83
2022/01/25 00:42:45;;;;;;;;;;;;;;;-7.87;100.00;102286.22;5557086;32;34736;-83
2022/01/25 00:45:49;;;;;;;;;;;;;;;-7.87;100.00;102290.47;5556980;32;34895;-83
2022/01/25 00:48:56;;;;;;;;;;;;;;;-7.96;100.00;102275.78;5557384;32;34719;-83
2022/01/25 00:52:17;;;;;;;;;;;;;;;-8.02;100.00;102276.56;5557636;32;35472;-83
2022/01/25 00:55:19;;;;;;;;;;;;;;;-8.06;100.00;102279.91;5557913;32;34530;-83
2022/01/25 00:58:23;;;;;;;;;;;;;;;-8.05;100.00;102271.34;5556869;32;34345;-83
2022/01/25 01:01:26;;;;;;;;;;;;;;;-8.09;100.00;102267.87;5558582;32;34147;-83
2022/01/25 01:04:32;;;;;;;;;;;;;;;-8.10;100.00;102263.56;5557232;32;34271;-83
2022/01/25 01:07:35;;;;;;;;;;;;;;;-8.08;100.00;102264.47;5556941;32;34497;-83
2022/01/25 01:10:38;;;;;;;;;;;;;;;-8.06;100.00;102259.34;5557429;32;34436;-83
2022/01/25 01:30:30;;;;;;;;;;;;;;;-8.15;100.00;102231.81;5559225;32;34623;-83
2022/01/25 01:43:32;;;;;;;;;;;;;;;-8.18;100.00;102218.03;5564452;32;34529;-83
2022/01/25 01:46:42;;;;;;;;;;;;;;;-8.08;100.00;102214.78;5559379;32;35530;-83
2022/01/25 01:49:46;;;;;;;;;;;;;;;-8.10;100.00;102214.78;5556630;32;34686;-83
2022/01/25 01:52:54;;;;;;;;;;;;;;;-8.20;100.00;102210.31;5557552;32;33843;-83
2022/01/25 01:55:57;;;;;;;;;;;;;;;-8.27;100.00;102198.19;5557109;32;34692;-83
2022/01/25 01:59:04;;;;;;;;;;;;;;;-8.25;100.00;102201.66;5558828;32;34679;-83
2022/01/25 02:02:09;;;;;;;;;;;;;;;-8.33;100.00;102201.53;5558889;32;34739;-83
2022/01/25 02:05:15;;;;;;;;;;;;;;;-8.24;100.00;102199.16;5559020;32;34479;-83
2022/01/25 02:08:18;;;;;;;;;;;;;;;-8.30;100.00;102193.03;5558650;32;34598;-83
2022/01/25 02:11:24;;;;;;;;;;;;;;;-8.33;100.00;102183.56;5558847;32;35061;-83
2022/01/25 02:14:35;;;;;;;;;;;;;;;-8.37;100.00;102186.94;5558832;32;34584;-83
2022/01/25 02:24:08;;;;;;;;;;;;;;;-8.41;100.00;102175.75;5558231;32;34984;-83
2022/01/25 02:27:13;;;;;;;;;;;;;;;-8.47;100.00;102185.91;5558721;32;34193;-83
2022/01/25 02:30:17;;;;;;;;;;;;;;;-8.48;100.00;102173.09;5558406;32;34436;-83
2022/01/25 02:33:19;;;;;;;;;;;;;;;-8.47;100.00;102179.94;5558728;32;34667;-83
2022/01/25 02:36:27;;;;;;;;;;;;;;;-8.48;100.00;102167.94;5558400;32;34811;-83
2022/01/25 02:39:30;;;;;;;;;;;;;;;-8.41;100.00;102168.06;5558418;32;34259;-83
2022/01/25 02:42:35;;;;;;;;;;;;;;;-8.44;100.00;102160.28;5558869;32;34794;-84
2022/01/25 02:45:37;;;;;;;;;;;;;;;-8.47;100.00;102157.66;5558590;32;34210;-83
2022/01/25 02:48:53;;;;;;;;;;;;;;;-8.45;100.00;102155.13;5558683;32;34259;-83
2022/01/25 02:52:04;;;;;;;;;;;;;;;-8.38;100.00;102144.12;5558589;32;35091;-83
2022/01/25 02:55:07;;;;;;;;;;;;;;;-8.46;100.00;102146.56;5558471;32;34378;-83
2022/01/25 02:58:10;;;;;;;;;;;;;;;-8.42;100.00;102135.50;5558234;32;34357;-83
2022/01/25 03:01:15;;;;;;;;;;;;;;;-8.33;100.00;102136.50;5558176;32;34486;-83
2022/01/25 03:04:19;;;;;;;;;;;;;;;-8.22;100.00;102129.81;5557896;32;34574;-83
2022/01/25 03:07:22;;;;;;;;;;;;;;;-8.30;100.00;102133.97;5558550;32;33944;-83
2022/01/25 03:10:32;;;;;;;;;;;;;;;-8.30;100.00;102126.28;5557922;32;34263;-83
2022/01/25 03:13:48;;;;;;;;;;;;;;;-8.28;100.00;102125.44;5564143;32;35511;-83
2022/01/25 03:20:04;;;;;;;;;;;;;;;-8.29;100.00;102122.88;5558471;32;34580;-83
2022/01/25 03:23:21;;;;;;;;;;;;;;;-8.24;100.00;102116.09;5558315;32;34985;-83
2022/01/25 03:26:28;;;;;;;;;;;;;;;-8.34;100.00;102119.34;5557838;32;34403;-83
2022/01/25 03:29:31;;;;;;;;;;;;;;;-8.25;100.00;102114.34;5558099;32;34597;-83
2022/01/25 03:32:33;;;;;;;;;;;;;;;-8.30;100.00;102116.84;5557859;32;34433;-83
2022/01/25 03:35:36;;;;;;;;;;;;;;;-8.32;100.00;102120.25;5558207;32;34322;-83
2022/01/25 03:38:42;;;;;;;;;;;;;;;-8.30;100.00;102110.88;5558459;32;34183;-83
2022/01/25 03:41:44;;;;;;;;;;;;;;;-8.30;100.00;102105.72;5558043;32;34313;-83
2022/01/25 03:44:48;;;;;;;;;;;;;;;-8.26;100.00;102107.47;5558093;32;34659;-83
2022/01/25 03:51:14;;;;;;;;;;;;;;;-8.28;100.00;102093.78;5558354;32;32752;-83
2022/01/25 03:54:16;;;;;;;;;;;;;;;-8.27;100.00;102086.09;5559526;32;34887;-83
2022/01/25 03:57:19;;;;;;;;;;;;;;;-8.27;100.00;102085.22;5563506;32;34267;-83
2022/01/25 04:00:22;;;;;;;;;;;;;;;-8.30;100.00;102086.03;5559766;32;34736;-83
2022/01/25 04:03:32;;;;;;;;;;;;;;;-8.21;100.00;102069.91;5558544;32;34085;-83
2022/01/25 04:06:36;;;;;;;;;;;;;;;-8.00;100.00;102078.75;5557919;32;34324;-83
2022/01/25 04:09:39;;;;;;;;;;;;;;;-7.79;100.00;102071.31;5558098;32;34438;-83
2022/01/25 04:12:41;;;;;;;;;;;;;;;-7.55;100.00;102072.47;5557978;32;34078;-83
2022/01/25 04:15:49;;;;;;;;;;;;;;;-7.30;100.00;102073.59;5544767;32;34733;-83
2022/01/25 04:25:15;;;;;;;;;;;;;;;-6.77;100.00;102050.06;5557929;32;34437;-83
2022/01/25 04:28:19;;;;;;;;;;;;;;;-6.60;100.00;102045.94;5558348;32;34718;-84
2022/01/25 04:31:22;;;;;;;;;;;;;;;-6.52;100.00;102048.53;5560015;32;34905;-84
2022/01/25 04:54:29;;;;;;;;;;;;;;;-5.87;100.00;102017.97;5557641;32;35071;-83
2022/01/25 05:00:40;;;;;;;;;;;;;;;-5.80;99.19;102003.41;5538775;32;34081;-83
2022/01/25 05:07:07;;;;;;;;;;;;;;;-5.63;99.44;102012.03;5539948;32;34427;-85
2022/01/25 05:10:15;;;;;;;;;;;;;;;-5.54;100.00;102000.00;5520015;32;34539;-83
2022/01/25 05:16:29;;;;;;;;;;;;;;;-5.46;98.72;101988.00;5519938;32;35399;-85
2022/01/25 05:22:36;;;;;;;;;;;;;;;-5.33;97.55;101973.41;5519180;32;34330;-83
2022/01/25 05:25:39;;;;;;;;;;;;;;;-5.31;99.00;101977.69;5519369;32;34269;-83
2022/01/25 05:28:41;;;;;;;;;;;;;;;-5.34;98.64;101982.84;5519056;32;34792;-83
2022/01/25 05:31:44;;;;;;;;;;;;;;;-5.35;97.52;101976.00;5518347;32;34099;-84
2022/01/25 05:34:49;;;;;;;;;;;;;;;-5.22;97.51;101979.44;5520421;32;34716;-85
2022/01/25 05:37:53;;;;;;;;;;;;;;;-5.08;96.85;101976.84;5519231;32;34816;-84
2022/01/25 05:40:59;;;;;;;;;;;;;;;-5.13;96.24;101970.84;5518516;32;34626;-84
2022/01/25 05:44:24;;;;;;;;;;;;;;;-5.15;96.59;101963.09;5518619;32;35130;-83
2022/01/25 05:47:31;;;;;;;;;;;;;;;-4.92;96.14;101963.94;5518718;32;34689;-83
2022/01/25 05:50:34;;;;;;;;;;;;;;;-4.90;95.65;101957.06;5518330;32;35526;-83
2022/01/25 05:53:37;;;;;;;;;;;;;;;-4.91;95.63;101951.03;5532158;32;35292;-83
2022/01/25 05:56:44;;;;;;;;;;;;;;;-4.89;95.70;101958.75;5552539;32;35098;-84
2022/01/25 05:59:46;;;;;;;;;;;;;;;-4.84;94.92;101962.22;5557113;32;33962;-84
2022/01/25 06:02:54;;;;;;;;;;;;;;;-4.82;94.88;101960.50;5556893;32;34265;-83
2022/01/25 06:05:57;;;;;;;;;;;;;;;-4.81;94.56;101967.38;5556364;32;34639;-83
2022/01/25 06:09:00;;;;;;;;;;;;;;;-4.69;94.79;101972.53;5556727;32;34398;-83
2022/01/25 06:12:03;;;;;;;;;;;;;;;-4.67;94.02;101981.12;5557223;32;35013;-84
2022/01/25 06:15:06;;;;;;;;;;;;;;;-4.65;94.34;101961.31;5555784;32;34411;-85
2022/01/25 06:18:14;;;;;;;;;;;;;;;-4.72;93.36;101969.94;5557084;32;34090;-85
2022/01/25 06:21:17;;;;;;;;;;;;;;;-4.69;93.88;101958.75;5556733;32;34829;-84
2022/01/25 06:24:22;;;;;;;;;;;;;;;-4.64;94.24;101954.44;5556954;32;34502;-85
2022/01/25 06:27:24;;;;;;;;;;;;;;;-4.57;93.76;101956.13;5558767;32;34149;-84
2022/01/25 06:30:30;;;;;;;;;;;;;;;-4.49;92.52;101953.53;5559126;32;34792;-84
2022/01/25 06:33:32;;;;;;;;;;;;;;;-4.50;91.66;101952.66;5557278;32;34901;-84
2022/01/25 06:36:38;;;;;;;;;;;;;;;-4.55;93.12;101941.50;5555891;32;34498;-85
2022/01/25 06:39:46;;;;;;;;;;;;;;;-4.61;92.34;101948.41;5557957;32;35397;-84
2022/01/25 06:42:48;;;;;;;;;;;;;;;-4.51;92.27;101945.81;5548994;32;34542;-84
2022/01/25 06:45:56;;;;;;;;;;;;;;;-4.36;91.93;101944.03;5545536;32;34359;-85
2022/01/25 06:48:59;;;;;;;;;;;;;;;-4.38;90.70;101944.03;5556077;32;34715;-85
2022/01/25 06:52:03;;;;;;;;;;;;;;;-4.36;91.55;101946.59;5539486;32;35566;-84
2022/01/25 06:55:13;;;;;;;;;;;;;;;-4.20;91.74;101942.25;5538963;32;34933;-84
2022/01/25 06:58:16;;;;;;;;;;;;;;;-4.20;92.05;101944.81;5539508;32;34943;-84
2022/01/25 07:01:19;;;;;;;;;;;;;;;-4.13;92.69;101936.19;5539888;32;34486;-85
2022/01/25 07:04:22;;;;;;;;;;;;;;;-4.05;92.95;101941.31;5539507;32;35270;-84
2022/01/25 07:07:24;;;;;;;;;;;;;;;-4.05;91.55;101947.34;5541235;32;34514;-85
2022/01/25 07:10:27;;;;;;;;;;;;;;;-4.01;92.02;101934.41;5539181;32;34576;-84
2022/01/25 07:13:32;;;;;;;;;;;;;;;-3.92;90.77;101931.78;5540569;32;34692;-84
2022/01/25 07:16:38;;;;;;;;;;;;;;;-3.95;91.09;101939.53;5541756;32;34509;-84
2022/01/25 07:19:41;;;;;;;;;;;;;;;-4.03;90.20;101943.03;5539863;32;35030;-85
2022/01/25 07:22:46;;;;;;;;;;;;;;;-4.12;89.91;101943.09;5539540;32;35266;-84
2022/01/25 07:25:50;;;;;;;;;;;;;;;-3.85;89.91;101941.22;5539415;32;34936;-84
2022/01/25 07:28:52;;;;;;;;;;;;;;;-3.82;88.83;101941.22;5539599;32;33807;-84
2022/01/25 07:31:55;;;;;;;;;;;;;;;-3.81;88.39;101937.75;5539159;32;34664;-85
2022/01/25 07:35:06;;;;;;;;;;;;;;;-3.79;88.57;101948.97;5540620;32;34490;-85
2022/01/25 07:38:26;;;;;;;;;;;;;;;-3.65;88.85;101953.16;5531981;32;34803;-84
2022/01/25 07:41:34;;;;;;;;;;;;;;;-3.51;89.15;101951.34;5545419;32;34913;-84
2022/01/25 07:44:46;;;;;;;;;;;;;;;-3.50;88.47;101955.66;5541075;32;34837;-85
2022/01/25 07:47:48;;;;;;;;;;;;;;;-3.52;87.96;101946.19;5542149;32;34583;-84
2022/01/25 07:50:51;;;;;;;;;;;;;;;-3.44;87.04;101955.63;5539871;32;34790;-84
2022/01/25 07:53:54;;;;;;;;;;;;;;;-3.38;87.82;101948.69;5540140;32;34730;-84
2022/01/25 07:56:56;;;;;;;;;;;;;;;-3.26;88.12;101956.38;5539181;32;34559;-85
2022/01/25 08:00:00;;;;;;;;;;;;;;;-3.46;87.10;101949.59;5539114;32;35502;-84
2022/01/25 08:03:04;;;;;;;;;;;;;;;-3.19;87.38;101947.66;5539719;32;34600;-84
2022/01/25 08:06:13;;;;;;;;;;;;;;;-3.36;86.72;101945.22;5539020;32;34751;-84
2022/01/25 08:09:29;;;;;;;;;;;;;;;-3.25;86.48;101942.56;5535391;32;34310;-84
2022/01/25 08:12:34;;;;;;;;;;;;;;;-3.11;86.12;101940.72;5539743;32;34607;-85
2022/01/25 08:15:45;;;;;;;;;;;;;;;-2.96;85.60;101931.06;5539402;32;35413;-84
2022/01/25 08:19:04;;;;;;;;;;;;;;;-2.79;85.26;101928.31;5540247;32;35581;-84
2022/01/25 08:22:18;;;;;;;;;;;;;;;-2.55;84.83;101922.03;5539661;32;34128;-85
2022/01/25 08:25:27;;;;;;;;;;;;;;;-2.22;83.98;101926.81;5539609;32;34679;-85
2022/01/25 08:28:34;;;;;;;;;;;;;;;-2.10;82.69;101910.28;5538919;32;34063;-85
2022/01/25 08:31:39;;;;;;;;;;;;;;;-2.30;83.28;101924.31;5539730;32;34476;-84
2022/01/25 08:34:42;;;;;;;;;;;;;;;-2.45;81.94;101919.34;5540458;32;35022;-85
2022/01/25 08:37:55;;;;;;;;;;;;;;;-2.15;82.20;101905.16;5539371;32;35061;-84
2022/01/25 08:41:02;;;;;;;;;;;;;;;-1.92;81.82;101917.78;5539055;32;34954;-84
2022/01/25 08:44:06;;;;;;;;;;;;;;;-1.89;80.94;101904.78;5538711;32;34232;-84
2022/01/25 08:47:14;;;;;;;;;;;;;;;-1.76;81.23;101910.66;5539306;32;34253;-84
2022/01/25 08:50:21;;;;;;;;;;;;;;;-1.86;80.65;101919.44;5539315;32;34891;-84
2022/01/25 08:53:33;;;;;;;;;;;;;;;-1.82;81.81;101910.75;5546024;32;34375;-85
2022/01/25 08:56:41;;;;;;;;;;;;;;;-1.66;79.59;101906.19;5559340;32;35136;-84
2022/01/25 08:59:50;;;;;;;;;;;;;;;-1.40;79.75;101904.91;5558872;32;34221;-84
2022/01/25 09:03:00;;;;;;;;;;;;;;;-1.15;78.57;101902.78;5560445;32;34626;-84
2022/01/25 09:06:03;;;;;;;;;;;;;;;-0.97;77.28;101917.19;5558282;32;36405;-85
2022/01/25 09:09:08;;;;;;;;;;;;;;;-0.98;78.96;101910.28;5559630;32;34726;-85
2022/01/25 09:12:12;;;;;;;;;;;;;;;-1.01;77.43;101905.13;5558934;32;34225;-84
2022/01/25 09:15:18;;;;;;;;;;;;;;;-0.87;76.78;101907.47;5560310;32;34428;-84
2022/01/25 09:18:21;;;;;;;;;;;;;;;-0.51;76.32;101914.63;5560340;32;35047;-85
2022/01/25 09:21:23;;;;;;;;;;;;;;;-0.50;75.93;101909.38;5558924;32;34489;-84
2022/01/25 09:24:37;;;;;;;;;;;;;;;-0.57;76.43;101900.00;5557425;32;34646;-84
2022/01/25 09:27:40;;;;;;;;;;;;;;;-0.59;76.94;101900.87;5559381;32;34381;-85
2022/01/25 09:30:43;;;;;;;;;;;;;;;-0.50;76.47;101900.69;5557572;32;34283;-84
2022/01/25 09:33:46;;;;;;;;;;;;;;;-0.37;76.54;101898.72;5558629;32;34652;-84
2022/01/25 09:36:52;;;;;;;;;;;;;;;-0.40;76.56;101890.97;5558763;32;34381;-84
2022/01/25 09:39:55;;;;;;;;;;;;;;;0.14;73.97;101882.03;5557761;32;35294;-86
2022/01/25 09:42:58;;;;;;;;;;;;;;;0.43;73.80;101881.34;5558428;32;34940;-85
2022/01/25 09:46:02;;;;;;;;;;;;;;;0.53;73.16;101879.34;5558792;32;34155;-85
2022/01/25 09:49:05;;;;;;;;;;;;;;;0.73;73.00;101880.63;5558468;32;34519;-84
2022/01/25 09:52:08;;;;;;;;;;;;;;;0.79;72.07;101879.62;5559060;32;34259;-84
2022/01/25 09:55:13;;;;;;;;;;;;;;;0.76;72.96;101875.31;5559503;32;34976;-84
2022/01/25 09:58:22;;;;;;;;;;;;;;;0.12;75.02;101874.22;5545273;32;34644;-84
2022/01/25 10:01:29;;;;;;;;;;;;;;;0.39;74.46;101866.69;5540611;32;35130;-86
2022/01/25 10:04:36;;;;;;;;;;;;;;;1.03;72.32;101859.88;5540200;32;34580;-84
2022/01/25 10:07:41;;;;;;;;;;;;;;;1.09;72.31;101857.06;5557358;32;34754;-85
2022/01/25 10:10:52;;;;;;;;;;;;;;;0.78;73.05;101855.28;5557963;32;34386;-85
2022/01/25 10:13:58;;;;;;;;;;;;;;;0.86;73.98;101849.88;5557809;32;34193;-85
2022/01/25 10:17:01;;;;;;;;;;;;;;;1.05;74.38;101842.44;5558542;32;34110;-85
2022/01/25 10:20:04;;;;;;;;;;;;;;;1.05;75.17;101832.84;5562172;32;34461;-85
2022/01/25 10:23:11;;;;;;;;;;;;;;;1.17;75.58;101851.66;5560940;32;34172;-85
2022/01/25 10:26:16;;;;;;;;;;;;;;;1.40;74.51;101832.78;5561430;32;35405;-85
2022/01/25 10:29:41;;;;;;;;;;;;;;;1.67;74.03;101811.97;5561462;32;35211;-86
2022/01/25 10:32:43;;;;;;;;;;;;;;;1.42;74.79;101809.25;5561989;32;35022;-86
2022/01/25 10:35:46;;;;;;;;;;;;;;;1.31;76.50;101812.16;5560696;32;34367;-85
2022/01/25 10:38:49;;;;;;;;;;;;;;;1.32;77.37;101819.06;5561388;32;34345;-85
2022/01/25 10:42:00;;;;;;;;;;;;;;;1.32;78.54;101819.94;5562380;32;34890;-84
2022/01/25 10:45:17;;;;;;;;;;;;;;;1.66;78.07;101810.25;5561204;32;33911;-85
2022/01/25 10:48:28;;;;;;;;;;;;;;;1.98;76.58;101806.66;5546540;32;34435;-84
2022/01/25 10:51:50;;;;;;;;;;;;;;;1.83;77.61;101802.78;5542849;32;34315;-85
2022/01/25 10:54:53;;;;;;;;;;;;;;;2.00;77.39;101798.78;5543466;32;34171;-85
2022/01/25 10:57:57;;;;;;;;;;;;;;;1.95;77.58;101801.53;5552248;32;34922;-84
2022/01/25 11:01:03;;;;;;;;;;;;;;;1.81;77.67;101796.75;5554025;32;34825;-85
2022/01/25 11:04:11;;;;;;;;;;;;;;;1.56;77.44;101799.28;5541027;32;35214;-84
2022/01/25 11:07:15;;;;;;;;;;;;;;;1.42;77.37;101802.25;5542408;32;34566;-84
2022/01/25 11:10:20;;;;;;;;;;;;;;;1.36;77.01;101789.41;5541618;32;36570;-85
2022/01/25 11:13:48;;;;;;;;;;;;;;;1.56;75.77;101798.41;5541201;32;34557;-85
2022/01/25 11:16:46;;;;;;;;;;;;;;;1.61;76.15;101792.13;5540829;32;34267;-84
2022/01/25 11:19:51;;;;;;;;;;;;;;;1.87;76.98;101781.78;5542194;32;34457;-85
2022/01/25 11:22:57;;;;;;;;;;;;;;;1.49;78.31;101776.84;5541991;32;34963;-85
2022/01/25 11:26:09;;;;;;;;;;;;;;;1.74;77.21;101773.50;5542538;32;34665;-85
2022/01/25 11:29:12;;;;;;;;;;;;;;;1.80;77.27;101765.50;5542905;32;34355;-85
2022/01/25 11:32:17;;;;;;;;;;;;;;;1.74;77.67;101763.94;5541645;32;34770;-84
2022/01/25 11:35:22;;;;;;;;;;;;;;;1.63;78.72;101763.41;5543221;32;34167;-85
2022/01/25 11:38:32;;;;;;;;;;;;;;;1.61;78.85;101762.59;5543504;32;35583;-85
2022/01/25 11:41:39;;;;;;;;;;;;;;;1.80;78.22;101760.28;5558906;32;34570;-84
2022/01/25 11:44:46;;;;;;;;;;;;;;;1.43;79.62;101757.03;5566785;32;35025;-84
2022/01/25 11:47:50;;;;;;;;;;;;;;;1.57;80.28;101768.81;5562569;32;34368;-84
2022/01/25 11:50:55;;;;;;;;;;;;;;;1.66;79.97;101758.94;5561368;32;34023;-84
2022/01/25 11:54:01;;;;;;;;;;;;;;;2.00;79.35;101757.00;5563453;32;34448;-84
2022/01/25 11:57:14;;;;;;;;;;;;;;;1.62;80.17;101751.28;5561369;32;34788;-84
2022/01/25 12:00:19;;;;;;;;;;;;;;;1.39;82.68;101750.22;5561438;32;35077;-84
2022/01/25 12:03:41;;;;;;;;;;;;;;;1.41;84.03;101737.97;5560473;32;34538;-84
2022/01/25 12:06:59;;;;;;;;;;;;;;;1.08;87.38;101735.47;5557731;32;35035;-84
2022/01/25 12:10:13;;;;;;;;;;;;;;;1.10;88.64;101735.44;5561797;32;35495;-84
2022/01/25 12:13:17;;;;;;;;;;;;;;;1.27;88.03;101727.12;5561123;32;34207;-84
2022/01/25 12:16:26;;;;;;;;;;;;;;;1.39;88.74;101724.13;5560397;32;35166;-85
2022/01/25 12:19:35;;;;;;;;;;;;;;;1.46;89.32;101720.44;5560983;32;34472;-84
2022/01/25 12:22:40;;;;;;;;;;;;;;;1.54;89.07;101709.75;5560356;32;34201;-84
2022/01/25 12:25:52;;;;;;;;;;;;;;;1.50;89.19;101701.19;5561598;32;35131;-84
2022/01/25 12:29:31;;;;;;;;;;;;;;;1.46;89.85;101707.38;5561070;32;34484;-83
2022/01/25 12:32:36;;;;;;;;;;;;;;;1.89;87.88;101706.91;5543860;32;36660;-84
2022/01/25 12:35:43;;;;;;;;;;;;;;;2.08;86.13;101700.19;5540885;32;34241;-84
2022/01/25 12:38:51;;;;;;;;;;;;;;;1.98;86.31;101706.59;5552302;32;35116;-84
2022/01/25 12:41:59;;;;;;;;;;;;;;;1.73;86.30;101697.00;5558252;32;35010;-84
2022/01/25 12:45:05;;;;;;;;;;;;;;;1.70;86.71;101699.69;5543653;32;34296;-84
2022/01/25 12:48:09;;;;;;;;;;;;;;;1.62;86.72;101704.31;5541097;32;34660;-84
2022/01/25 12:51:13;;;;;;;;;;;;;;;1.40;87.81;101694.56;5541343;32;34653;-85
2022/01/25 12:54:16;;;;;;;;;;;;;;;1.30;89.21;101693.09;5541641;32;34448;-84
2022/01/25 12:57:18;;;;;;;;;;;;;;;1.37;88.75;101685.03;5549792;32;34947;-85
2022/01/25 13:00:30;;;;;;;;;;;;;;;1.33;89.48;101672.16;5561394;32;34165;-85
2022/01/25 13:03:34;;;;;;;;;;;;;;;1.27;89.15;101681.03;5558743;32;34181;-85
2022/01/25 13:06:39;;;;;;;;;;;;;;;1.19;90.18;101677.81;5559481;32;35780;-84
2022/01/25 13:09:45;;;;;;;;;;;;;;;1.08;91.49;101662.47;5559460;32;34563;-84
2022/01/25 13:12:59;;;;;;;;;;;;;;;0.85;92.70;101671.84;5559575;32;35341;-84
2022/01/25 13:16:02;;;;;;;;;;;;;;;0.80;93.90;101658.09;5559202;32;34693;-84
2022/01/25 13:19:05;;;;;;;;;;;;;;;0.78;94.56;101657.28;5559855;32;34426;-84
2022/01/25 13:22:19;;;;;;;;;;;;;;;0.73;94.46;101646.16;5559368;32;35150;-84
2022/01/25 13:25:35;;;;;;;;;;;;;;;0.69;95.22;101639.31;5559453;32;34622;-84
2022/01/25 13:28:53;;;;;;;;;;;;;;;0.64;95.69;101636.84;5559191;32;34359;-84
2022/01/25 13:32:12;;;;;;;;;;;;;;;0.77;95.73;101632.12;5559147;32;34625;-84
2022/01/25 13:35:27;;;;;;;;;;;;;;;1.06;96.28;101623.44;5561081;32;35567;-84
2022/01/25 13:38:38;;;;;;;;;;;;;;;1.11;97.19;101625.91;5560219;32;34764;-84
2022/01/25 13:41:50;;;;;;;;;;;;;;;0.65;99.92;101627.28;5559548;32;34122;-84
2022/01/25 13:48:29;;;;;;;;;;;;;;;0.53;100.00;101621.53;5555483;32;34715;-84
2022/01/25 13:51:48;;;;;;;;;;;;;;;0.67;100.00;101620.28;5537811;32;34736;-84
2022/01/25 13:55:08;;;;;;;;;;;;;;;0.66;100.00;101608.16;5539392;32;35625;-84
2022/01/25 13:58:18;;;;;;;;;;;;;;;0.52;100.00;101604.19;5539216;32;34608;-84
2022/01/25 14:01:23;;;;;;;;;;;;;;;0.50;100.00;101602.53;5540360;32;35120;-84
2022/01/25 14:04:28;;;;;;;;;;;;;;;0.51;100.00;101599.87;5540861;32;34907;-84
2022/01/25 14:07:37;;;;;;;;;;;;;;;0.58;100.00;101604.03;5539549;32;35013;-84
2022/01/25 14:10:45;;;;;;;;;;;;;;;0.55;100.00;101596.28;5539825;32;35101;-84
2022/01/25 14:23:57;;;;;;;;;;;;;;;0.88;97.84;101593.56;5542872;32;34740;-84
2022/01/25 14:27:16;;;;;;;;;;;;;;;0.86;98.25;101590.16;5539492;32;35010;-84
2022/01/25 14:30:19;;;;;;;;;;;;;;;1.07;96.56;101603.41;5539435;32;37089;-84
2022/01/25 14:33:22;;;;;;;;;;;;;;;0.99;97.52;101600.22;5553525;32;34692;-84
2022/01/25 14:36:28;;;;;;;;;;;;;;;1.16;96.50;101597.94;5558900;32;34632;-84
2022/01/25 14:39:32;;;;;;;;;;;;;;;1.08;96.05;101615.56;5542652;32;34588;-84
2022/01/25 14:42:37;;;;;;;;;;;;;;;1.10;95.82;101603.34;5540216;32;34876;-85
2022/01/25 14:45:57;;;;;;;;;;;;;;;0.90;96.70;101602.22;5538775;32;34596;-84
2022/01/25 14:49:06;;;;;;;;;;;;;;;0.90;97.30;101607.41;5538462;32;34850;-84
2022/01/25 14:52:18;;;;;;;;;;;;;;;0.98;96.09;101607.19;5538585;32;34484;-83
2022/01/25 14:55:23;;;;;;;;;;;;;;;0.80;97.32;101611.19;5553417;32;34196;-83
2022/01/25 15:01:52;;;;;;;;;;;;;;;0.85;96.62;101608.47;5557869;32;34272;-83
2022/01/25 15:05:02;;;;;;;;;;;;;;;0.60;98.81;101615.25;5556110;32;34255;-83
2022/01/25 15:08:05;;;;;;;;;;;;;;;0.53;98.53;101611.09;5542360;32;36263;-83
2022/01/25 15:11:08;;;;;;;;;;;;;;;0.65;97.96;101614.25;5550838;32;34666;-83
2022/01/25 15:14:20;;;;;;;;;;;;;;;0.50;99.08;101613.81;5555780;32;34868;-83
2022/01/25 15:17:23;;;;;;;;;;;;;;;0.35;100.00;101614.25;5560030;32;35501;-83
2022/01/25 15:20:34;;;;;;;;;;;;;;;0.19;100.00;101609.44;5560581;32;34656;-82
2022/01/25 15:23:38;;;;;;;;;;;;;;;0.28;100.00;101614.41;5559218;32;34615;-82
2022/01/25 15:26:42;;;;;;;;;;;;;;;0.17;100.00;101611.25;5558781;32;34080;-82
2022/01/25 15:29:45;;;;;;;;;;;;;;;0.07;100.00;101612.38;5560244;32;33989;-82
2022/01/25 15:32:48;;;;;;;;;;;;;;;-0.16;100.00;101600.84;5563650;32;34562;-82
2022/01/25 15:35:51;;;;;;;;;;;;;;;-0.35;100.00;101603.09;5560582;32;34277;-82
2022/01/25 15:38:54;;;;;;;;;;;;;;;-0.51;100.00;101613.03;5559685;32;34754;-82
2022/01/25 15:41:59;;;;;;;;;;;;;;;-0.58;100.00;101621.84;5559964;32;34438;-83
2022/01/25 15:45:21;;;;;;;;;;;;;;;-0.74;100.00;101617.03;5559296;32;35722;-83
2022/01/25 15:48:24;;;;;;;;;;;;;;;-0.72;100.00;101615.22;5559661;32;35362;-83
2022/01/25 15:51:27;;;;;;;;;;;;;;;-0.74;100.00;101610.94;5560104;32;34597;-83
2022/01/25 15:54:30;;;;;;;;;;;;;;;-0.82;100.00;101603.34;5560804;32;34591;-84
2022/01/25 15:57:33;;;;;;;;;;;;;;;-0.61;100.00;101612.38;5554673;32;34159;-82
2022/01/25 16:00:36;;;;;;;;;;;;;;;-0.49;100.00;101611.22;5540381;32;34075;-82
2022/01/25 16:03:41;;;;;;;;;;;;;;;-0.42;100.00;101607.59;5526619;32;35248;-82
2022/01/25 16:06:44;;;;;;;;;;;;;;;-0.52;100.00;101611.31;5540166;32;34647;-83
2022/01/25 16:09:53;;;;;;;;;;;;;;;-0.46;100.00;101611.16;5540587;32;34672;-83
2022/01/25 16:12:56;;;;;;;;;;;;;;;-0.43;100.00;101603.28;5540124;32;35200;-84
2022/01/25 16:16:03;;;;;;;;;;;;;;;-0.33;100.00;101606.47;5540754;32;34540;-83
2022/01/25 16:19:06;;;;;;;;;;;;;;;-0.30;100.00;101613.37;5541908;32;34698;-83
2022/01/25 16:22:09;;;;;;;;;;;;;;;-0.19;100.00;101613.94;5544717;32;34538;-83
2022/01/25 16:25:12;;;;;;;;;;;;;;;-0.17;100.00;101613.00;5543789;32;35597;-83
2022/01/25 16:28:17;;;;;;;;;;;;;;;-0.12;100.00;101610.28;5541345;32;34087;-83
2022/01/25 16:31:28;;;;;;;;;;;;;;;-0.05;100.00;101611.81;5540815;32;34442;-83
2022/01/25 16:34:31;;;;;;;;;;;;;;;0.03;100.00;101615.97;5540770;32;36216;-83
2022/01/25 16:37:37;;;;;;;;;;;;;;;0.04;100.00;101620.28;5540501;32;35065;-83
2022/01/25 16:40:40;;;;;;;;;;;;;;;0.04;100.00;101615.94;5540894;32;34320;-83
2022/01/25 16:43:44;;;;;;;;;;;;;;;0.11;100.00;101607.06;5540551;32;34763;-83
2022/01/25 16:46:46;;;;;;;;;;;;;;;-0.08;100.00;101604.13;5541238;32;35292;-83
2022/01/25 16:49:49;;;;;;;;;;;;;;;-0.13;100.00;101607.72;5542407;32;34279;-83
2022/01/25 16:52:56;;;;;;;;;;;;;;;0.01;100.00;101599.56;5546965;32;34435;-83
2022/01/25 16:56:02;;;;;;;;;;;;;;;-0.02;100.00;101601.34;5542785;32;34377;-83
2022/01/25 16:59:07;;;;;;;;;;;;;;;0.04;100.00;101602.91;5543581;32;35164;-83
2022/01/25 17:02:12;;;;;;;;;;;;;;;-0.01;100.00;101603.03;5543200;32;34637;-83
2022/01/25 17:05:16;;;;;;;;;;;;;;;-0.11;100.00;101595.53;5541105;32;34450;-83
2022/01/25 17:08:22;;;;;;;;;;;;;;;-0.12;100.00;101596.44;5540645;32;34402;-83
2022/01/25 17:11:27;;;;;;;;;;;;;;;-0.01;100.00;101590.03;5540744;32;35139;-83
2022/01/25 17:14:29;;;;;;;;;;;;;;;0.17;100.00;101585.22;5540160;32;35557;-83
2022/01/25 17:17:32;;;;;;;;;;;;;;;0.02;100.00;101583.06;5539670;32;34833;-83
2022/01/25 17:20:34;;;;;;;;;;;;;;;0.17;100.00;101595.63;5540591;32;34602;-83
2022/01/25 17:23:38;;;;;;;;;;;;;;;0.07;100.00;101583.75;5541189;32;34227;-84
2022/01/25 17:26:40;;;;;;;;;;;;;;;0.01;100.00;101583.94;5539907;32;34462;-83
2022/01/25 17:29:43;;;;;;;;;;;;;;;0.00;100.00;101583.09;5539134;32;34562;-84
2022/01/25 17:32:46;;;;;;;;;;;;;;;-0.12;100.00;101589.47;5540563;32;34963;-83
2022/01/25 17:35:50;;;;;;;;;;;;;;;-0.18;100.00;101593.09;5539736;32;34027;-83
2022/01/25 17:38:53;;;;;;;;;;;;;;;-0.13;100.00;101592.97;5539564;32;34095;-84
2022/01/25 17:42:05;;;;;;;;;;;;;;;0.05;100.00;101585.56;5540695;32;34559;-84
2022/01/25 17:45:15;;;;;;;;;;;;;;;0.02;100.00;101598.66;5541042;32;34760;-83
2022/01/25 17:48:20;;;;;;;;;;;;;;;0.10;100.00;101591.50;5541450;32;34914;-83
2022/01/25 17:51:23;;;;;;;;;;;;;;;0.10;100.00;101588.88;5541076;32;34515;-83
2022/01/25 17:54:26;;;;;;;;;;;;;;;0.18;100.00;101592.13;5540626;32;34500;-84
2022/01/25 17:57:30;;;;;;;;;;;;;;;0.15;100.00;101594.84;5540274;32;34134;-85